Time;durP1;ratioP1;P1;durP2;ratioP2;P2;SDS_P1;SDS_P2;PMS_P1;PMS_P2;Temp;Humidity;BMP_temperature;BMP_pressure;BME280_temperature;BME280_humidity;BME280_pressure;Samples;Min_cycle;Max_cycle;Signal;HPM_P1;HPM_P2
2021/01/01 00:02:33;;;;;;;25.37;12.73;;;;;;;0.41;84.93;98054.75;2233814;79;21114;-90
2021/01/01 00:05:37;;;;;;;31.17;15.32;;;;;;;0.38;84.75;98053.26;2234155;79;21549;-90
2021/01/01 00:08:47;;;;;;;26.87;12.82;;;;;;;0.31;84.50;98059.06;2215942;79;21146;-89
2021/01/01 00:11:50;;;;;;;24.25;12.23;;;;;;;0.23;84.39;98048.13;2234065;79;21280;-88
2021/01/01 00:14:54;;;;;;;24.23;12.58;;;;;;;0.14;84.37;98063.88;2232784;80;21166;-89
2021/01/01 00:17:57;;;;;;;22.30;11.43;;;;;;;0.24;85.10;98058.76;2234029;78;21111;-88
2021/01/01 00:21:00;;;;;;;26.48;13.98;;;;;;;0.34;85.02;98062.65;2234188;79;21161;-88
2021/01/01 00:24:02;;;;;;;30.52;15.00;;;;;;;0.37;84.62;98063.22;2234248;80;21307;-87
2021/01/01 00:27:05;;;;;;;28.60;14.93;;;;;;;0.37;84.67;98057.26;2234229;79;21287;-88
2021/01/01 00:30:07;;;;;;;23.00;12.18;;;;;;;0.42;84.98;98059.77;2234189;79;21729;-87
2021/01/01 00:33:11;;;;;;;22.52;11.95;;;;;;;0.40;84.41;98064.23;2234261;80;21304;-88
2021/01/01 00:36:29;;;;;;;;;;;;;;;;;;;;;
2021/01/01 00:43:28;;;;;;;24.52;12.73;;;;;;;0.31;84.62;98065.50;2305873;77;24190;-87
2021/01/01 00:46:48;;;;;;;;;;;;;;;;;;;;;
2021/01/01 00:49:49;;;;;;;33.83;15.68;;;;;;;0.12;84.74;98063.20;2302008;77;21691;-88
2021/01/01 00:53:10;;;;;;;;;;;;;;;;;;;;;
2021/01/01 00:56:03;;;;;;;24.47;11.22;;;;;;;0.09;84.79;98065.20;2296658;77;21308;-89
2021/01/01 00:59:07;;;;;;;23.02;12.58;;;;;;;0.07;84.88;98067.09;2302140;77;21136;-87
2021/01/01 01:02:09;;;;;;;31.60;15.93;;;;;;;-0.02;85.05;98069.96;2302196;77;21153;-87
2021/01/01 01:05:10;;;;;;;35.63;15.68;;;;;;;-0.04;85.20;98072.67;2302152;77;21121;-87
2021/01/01 01:08:12;;;;;;;29.92;14.58;;;;;;;-0.01;85.15;98071.11;2301943;77;21283;-87
2021/01/01 01:11:14;;;;;;;32.55;16.25;;;;;;;0.06;85.11;98077.05;2302186;77;21299;-87
2021/01/01 01:14:16;;;;;;;30.25;15.13;;;;;;;0.12;85.15;98072.68;2302005;77;21799;-88
2021/01/01 01:17:28;;;;;;;42.30;19.90;;;;;;;0.20;85.18;98076.71;2301979;77;21295;-88
2021/01/01 01:20:33;;;;;;;36.10;17.62;;;;;;;0.25;85.42;98078.41;2302002;77;21255;-89
2021/01/01 01:23:34;;;;;;;29.67;13.68;;;;;;;0.34;85.17;98077.63;2302053;77;21604;-88
2021/01/01 01:26:37;;;;;;;23.22;12.53;;;;;;;0.39;85.02;98079.35;2302224;77;21285;-88
2021/01/01 01:29:38;;;;;;;30.08;14.70;;;;;;;0.36;84.46;98082.17;2302079;77;21287;-88
2021/01/01 01:32:43;;;;;;;44.93;17.48;;;;;;;0.31;84.78;98075.33;2302264;77;21263;-87
2021/01/01 01:35:45;;;;;;;32.28;15.35;;;;;;;0.33;84.90;98082.91;2302190;77;21097;-88
2021/01/01 01:38:46;;;;;;;41.53;17.57;;;;;;;0.33;84.32;98076.47;2302149;77;21280;-88
2021/01/01 01:41:49;;;;;;;32.88;17.10;;;;;;;0.42;84.98;98077.80;2298238;77;21177;-87
2021/01/01 01:44:50;;;;;;;41.60;18.87;;;;;;;0.54;84.93;98076.73;2292274;77;21120;-88
2021/01/01 01:47:52;;;;;;;43.35;17.55;;;;;;;0.63;84.88;98081.57;2292193;78;21153;-88
2021/01/01 01:50:53;;;;;;;43.25;19.07;;;;;;;0.71;84.81;98079.63;2292814;77;21292;-89
2021/01/01 01:53:55;;;;;;;38.50;17.73;;;;;;;0.78;84.51;98084.59;2291722;77;21707;-89
2021/01/01 01:56:57;;;;;;;35.43;17.67;;;;;;;0.76;84.19;98083.92;2291280;78;21560;-88
2021/01/01 01:59:58;;;;;;;50.25;20.27;;;;;;;0.78;84.32;98084.59;2291517;78;21283;-88
2021/01/01 02:03:00;;;;;;;76.90;26.37;;;;;;;0.82;84.41;98092.39;2291578;77;21173;-88
2021/01/01 02:06:01;;;;;;;85.45;26.05;;;;;;;0.82;84.02;98085.50;2291345;77;21752;-89
2021/01/01 02:09:03;;;;;;;49.23;21.05;;;;;;;0.83;84.05;98078.10;2291568;77;21275;-88
2021/01/01 02:12:04;;;;;;;37.63;16.80;;;;;;;0.86;83.99;98083.45;2291506;77;21711;-88
2021/01/01 02:15:06;;;;;;;37.17;17.10;;;;;;;0.93;84.20;98091.48;2291814;78;21287;-88
2021/01/01 02:18:07;;;;;;;32.58;16.50;;;;;;;0.85;83.42;98085.22;2291712;77;21315;-89
2021/01/01 02:21:09;;;;;;;39.65;16.55;;;;;;;0.75;83.71;98081.81;2291728;77;21295;-88
2021/01/01 02:24:10;;;;;;;42.15;18.82;;;;;;;0.72;83.73;98083.35;2291844;78;21299;-89
2021/01/01 02:27:12;;;;;;;37.55;17.37;;;;;;;0.72;83.66;98088.50;2291383;77;21296;-88
2021/01/01 02:30:13;;;;;;;43.13;17.70;;;;;;;0.72;83.60;98080.77;2291623;78;21156;-89
2021/01/01 02:33:18;;;;;;;35.83;17.12;;;;;;;0.66;83.72;98077.45;2291499;78;21271;-89
2021/01/01 02:36:20;;;;;;;34.58;16.90;;;;;;;0.51;83.29;98087.31;2291400;78;21307;-88
2021/01/01 02:39:21;;;;;;;26.65;13.40;;;;;;;0.41;83.73;98087.76;2291804;77;21648;-89
2021/01/01 02:42:23;;;;;;;30.15;16.35;;;;;;;0.37;83.39;98090.73;2291259;77;21260;-88
2021/01/01 02:45:24;;;;;;;28.98;14.28;;;;;;;0.31;83.65;98083.52;2291476;77;21283;-88
2021/01/01 02:48:26;;;;;;;32.75;15.13;;;;;;;0.24;83.53;98084.03;2291238;77;21644;-88
2021/01/01 02:51:27;;;;;;;37.55;18.77;;;;;;;0.18;83.95;98084.57;2291488;78;21293;-87
2021/01/01 02:54:29;;;;;;;44.63;19.42;;;;;;;0.18;83.95;98078.58;2291735;78;21267;-88
2021/01/01 02:57:30;;;;;;;32.05;14.75;;;;;;;0.20;84.14;98081.39;2291447;77;21267;-88
2021/01/01 03:00:32;;;;;;;41.28;19.23;;;;;;;0.27;83.79;98073.50;2291455;77;21656;-88
2021/01/01 03:03:33;;;;;;;32.30;16.00;;;;;;;0.19;83.82;98077.66;2291304;77;21426;-87
2021/01/01 03:06:35;;;;;;;33.55;17.42;;;;;;;0.19;83.96;98073.80;2291548;78;21271;-87
2021/01/01 03:09:36;;;;;;;40.60;18.55;;;;;;;0.19;84.13;98073.33;2291603;78;21280;-88
2021/01/01 03:12:38;;;;;;;45.12;20.15;;;;;;;0.19;84.13;98071.23;2291465;77;21738;-88
2021/01/01 03:15:39;;;;;;;54.00;24.10;;;;;;;0.31;84.54;98071.46;2291311;77;21177;-87
2021/01/01 03:18:41;;;;;;;76.07;28.23;;;;;;;0.47;84.39;98067.11;2291516;78;21521;-88
2021/01/01 03:21:44;;;;;;;44.10;20.48;;;;;;;0.55;84.29;98069.84;2291266;77;21145;-87
2021/01/01 03:24:51;;;;;;;50.05;19.80;;;;;;;0.66;84.34;98074.07;2291512;78;21240;-88
2021/01/01 03:27:52;;;;;;;43.23;17.85;;;;;;;0.75;83.97;98069.41;2291437;78;21306;-88
2021/01/01 03:30:54;;;;;;;37.98;16.75;;;;;;;0.75;83.67;98068.93;2291336;78;21164;-88
2021/01/01 03:33:55;;;;;;;29.52;14.98;;;;;;;0.74;83.66;98069.88;2291622;78;21291;-88
2021/01/01 03:36:56;;;;;;;30.52;14.15;;;;;;;0.77;83.73;98080.39;2291474;77;21704;-89
2021/01/01 03:39:58;;;;;;;37.60;16.15;;;;;;;0.80;83.60;98077.54;2291215;77;21283;-90
2021/01/01 03:43:00;;;;;;;40.38;17.85;;;;;;;0.85;83.62;98080.06;2291181;78;21728;-88
2021/01/01 03:46:01;;;;;;;36.65;17.48;;;;;;;0.82;83.37;98068.75;2291501;77;21695;-89
2021/01/01 03:49:05;;;;;;;34.90;17.23;;;;;;;0.79;83.35;98066.89;2291382;78;21275;-89
2021/01/01 03:52:06;;;;;;;35.88;16.32;;;;;;;0.81;83.32;98068.86;2291275;77;21287;-89
2021/01/01 03:55:07;;;;;;;27.37;14.55;;;;;;;0.78;83.47;98069.13;2291328;77;21322;-89
2021/01/01 03:58:09;;;;;;;35.75;17.90;;;;;;;0.81;83.37;98061.12;2291407;78;21314;-89
2021/01/01 04:01:10;;;;;;;36.17;15.68;;;;;;;0.80;83.39;98059.50;2291322;77;21260;-89
2021/01/01 04:04:12;;;;;;;34.23;15.65;;;;;;;0.87;83.40;98062.36;2291668;77;21283;-89
2021/01/01 04:07:14;;;;;;;31.65;14.65;;;;;;;0.94;83.34;98064.75;2291355;77;21299;-89
2021/01/01 04:10:15;;;;;;;33.83;15.38;;;;;;;0.91;82.80;98068.39;2291704;77;21299;-89
2021/01/01 04:13:17;;;;;;;30.75;15.68;;;;;;;0.83;83.00;98069.56;2291282;77;21256;-89
2021/01/01 04:16:18;;;;;;;26.37;13.85;;;;;;;0.82;82.87;98066.17;2291340;78;21275;-89
2021/01/01 04:19:20;;;;;;;29.15;14.47;;;;;;;0.85;82.83;98065.89;2291258;78;21288;-89
2021/01/01 04:22:21;;;;;;;33.35;14.73;;;;;;;0.83;82.62;98069.09;2291303;78;21292;-89
2021/01/01 04:25:23;;;;;;;28.17;13.75;;;;;;;0.89;82.79;98072.87;2291226;78;21130;-88
2021/01/01 04:28:24;;;;;;;27.42;13.18;;;;;;;0.76;82.06;98074.42;2291477;77;21279;-89
2021/01/01 04:31:26;;;;;;;26.95;13.08;;;;;;;0.60;82.11;98075.88;2291648;78;21716;-89
2021/01/01 04:34:27;;;;;;;19.40;10.35;;;;;;;0.53;82.33;98077.69;2291231;78;21531;-89
2021/01/01 04:37:29;;;;;;;23.83;12.65;;;;;;;0.39;81.90;98073.39;2291318;77;21255;-89
2021/01/01 04:40:30;;;;;;;34.85;14.93;;;;;;;0.19;82.12;98085.38;2291548;77;21283;-89
2021/01/01 04:43:35;;;;;;;33.85;15.63;;;;;;;0.15;82.77;98088.67;2288208;77;21286;-88
2021/01/01 04:46:37;;;;;;;28.47;14.45;;;;;;;0.22;82.91;98087.69;2286836;78;21117;-88
2021/01/01 04:49:38;;;;;;;36.77;16.73;;;;;;;0.35;83.33;98083.12;2287313;78;21283;-89
2021/01/01 04:56:31;;;;;;;34.38;16.20;;;;;;;0.55;82.77;98091.27;2160021;82;21168;-88
2021/01/01 04:59:32;;;;;;;36.08;16.97;;;;;;;0.44;82.88;98091.35;2134053;82;21163;-88
2021/01/01 05:02:34;;;;;;;30.82;15.68;;;;;;;0.43;82.93;98092.30;2160139;82;21215;-89
2021/01/01 05:05:35;;;;;;;39.95;16.50;;;;;;;0.44;82.88;98097.79;2159600;82;21360;-87
2021/01/01 05:08:37;;;;;;;37.67;16.67;;;;;;;0.43;82.80;98092.77;2160107;82;21154;-88
2021/01/01 05:11:38;;;;;;;34.83;15.75;;;;;;;0.46;83.07;98101.08;2160076;82;21167;-88
2021/01/01 05:14:40;;;;;;;37.13;17.42;;;;;;;0.51;83.06;98100.66;2159930;82;21337;-88
2021/01/01 05:17:41;;;;;;;40.60;17.35;;;;;;;0.62;83.08;98106.19;2160141;82;21803;-89
2021/01/01 05:20:43;;;;;;;36.73;15.68;;;;;;;0.74;83.09;98100.00;2159937;82;21228;-88
2021/01/01 05:23:44;;;;;;;35.50;17.90;;;;;;;0.77;82.56;98104.40;2159842;82;21207;-88
2021/01/01 05:26:46;;;;;;;36.77;16.80;;;;;;;0.73;82.61;98100.91;2160007;82;21215;-88
2021/01/01 05:29:47;;;;;;;41.45;18.10;;;;;;;0.68;82.73;98101.33;2160065;82;21210;-89
2021/01/01 05:32:49;;;;;;;38.83;15.85;;;;;;;0.67;82.76;98110.48;2263836;78;21275;-89
2021/01/01 05:35:50;;;;;;;31.87;14.58;;;;;;;0.71;82.49;98121.67;2287241;78;21279;-89
2021/01/01 05:38:52;;;;;;;36.98;17.35;;;;;;;0.59;82.06;98121.44;2287052;78;21279;-88
2021/01/01 05:41:53;;;;;;;41.75;18.12;;;;;;;0.47;82.75;98122.50;2287326;78;21299;-89
2021/01/01 05:44:57;;;;;;;38.23;16.50;;;;;;;0.45;82.81;98124.36;2287426;78;21106;-88
2021/01/01 05:47:58;;;;;;;37.38;15.63;;;;;;;0.41;83.00;98121.72;2287387;78;21255;-89
2021/01/01 05:51:00;;;;;;;31.33;14.18;;;;;;;0.43;83.01;98128.36;2287567;77;21295;-89
2021/01/01 05:54:02;;;;;;;31.23;13.68;;;;;;;0.43;82.77;98131.41;2287417;78;21150;-89
2021/01/01 05:57:03;;;;;;;35.60;15.72;;;;;;;0.41;82.76;98126.87;2287433;78;21311;-89
2021/01/01 06:00:05;;;;;;;35.20;16.20;;;;;;;0.38;82.96;98137.44;2287735;78;21141;-89
2021/01/01 06:03:06;;;;;;;30.68;14.23;;;;;;;0.46;82.88;98132.45;2287664;78;21312;-89
2021/01/01 06:06:08;;;;;;;26.87;12.40;;;;;;;0.50;82.68;98129.95;2287396;78;21782;-89
2021/01/01 06:09:10;;;;;;;28.45;14.70;;;;;;;0.41;82.28;98126.39;2287544;78;21264;-89
2021/01/01 06:12:12;;;;;;;30.62;13.75;;;;;;;0.22;82.29;98127.13;2287332;78;21290;-89
2021/01/01 06:15:14;;;;;;;31.23;15.05;;;;;;;0.17;82.46;98126.69;2287450;78;21307;-89
2021/01/01 06:18:15;;;;;;;32.48;15.30;;;;;;;0.11;82.71;98125.93;2287674;78;21315;-89
2021/01/01 06:21:17;;;;;;;35.05;14.80;;;;;;;0.11;83.09;98126.41;2287527;77;21141;-90
2021/01/01 06:24:19;;;;;;;32.80;14.78;;;;;;;0.11;82.97;98120.78;2287614;78;21272;-89
2021/01/01 06:27:23;;;;;;;30.00;14.00;;;;;;;0.07;82.87;98119.86;2287723;78;21315;-88
2021/01/01 06:30:26;;;;;;;23.27;11.57;;;;;;;0.04;82.92;98126.09;2287409;78;21275;-88
2021/01/01 06:33:29;;;;;;;29.67;13.62;;;;;;;0.01;82.67;98128.11;2287317;78;21300;-88
2021/01/01 06:36:30;;;;;;;33.92;15.48;;;;;;;-0.13;82.78;98130.05;2287366;78;21328;-89
2021/01/01 06:39:32;;;;;;;30.25;14.05;;;;;;;-0.17;83.00;98132.55;2287422;78;21751;-88
2021/01/01 06:42:33;;;;;;;32.85;15.28;;;;;;;-0.22;83.12;98135.95;2287207;78;21291;-89
2021/01/01 06:45:36;;;;;;;36.23;15.28;;;;;;;-0.30;83.13;98126.76;2287375;78;21304;-89
2021/01/01 06:48:37;;;;;;;37.83;16.57;;;;;;;-0.33;83.40;98125.27;2287311;78;21311;-89
2021/01/01 06:51:39;;;;;;;36.77;16.23;;;;;;;-0.30;83.67;98128.05;2287065;78;21252;-89
2021/01/01 06:54:40;;;;;;;37.98;15.55;;;;;;;-0.32;83.67;98130.75;2287136;78;21271;-89
2021/01/01 06:57:42;;;;;;;38.63;16.80;;;;;;;-0.27;83.84;98132.96;2287475;78;21303;-89
2021/01/01 07:00:43;;;;;;;42.20;18.15;;;;;;;-0.25;83.89;98138.79;2287369;78;21303;-88
2021/01/01 07:03:45;;;;;;;34.98;14.98;;;;;;;-0.19;83.96;98138.73;2286990;78;21591;-89
2021/01/01 07:06:46;;;;;;;37.75;16.55;;;;;;;-0.12;83.96;98138.11;2287099;78;21259;-89
2021/01/01 07:09:48;;;;;;;41.53;16.97;;;;;;;-0.08;83.97;98135.65;2287324;78;21299;-88
2021/01/01 07:12:49;;;;;;;42.53;17.00;;;;;;;-0.08;83.78;98141.27;2287010;78;21762;-89
2021/01/01 07:15:51;;;;;;;32.33;14.68;;;;;;;-0.11;83.70;98149.22;2287085;78;21274;-88
2021/01/01 07:18:52;;;;;;;26.30;12.03;;;;;;;-0.08;83.72;98148.99;2286909;78;21146;-89
2021/01/01 07:21:54;;;;;;;30.52;14.00;;;;;;;;;;2286784;78;21153;-88
2021/01/01 07:24:56;;;;;;;31.55;14.73;;;;;;;-0.09;83.48;98151.19;2286837;78;21121;-88
2021/01/01 07:27:57;;;;;;;26.10;12.05;;;;;;;-0.07;83.45;98148.86;2287069;78;21731;-89
2021/01/01 07:31:01;;;;;;;30.60;13.98;;;;;;;-0.09;83.26;98150.75;2287063;78;21141;-88
2021/01/01 07:34:03;;;;;;;35.00;14.78;;;;;;;-0.06;83.38;98153.53;2286905;78;21267;-89
2021/01/01 07:37:04;;;;;;;37.88;15.93;;;;;;;-0.04;83.45;98151.17;2287376;78;21280;-89
2021/01/01 07:40:06;;;;;;;32.67;15.55;;;;;;;-0.03;83.58;98156.66;2287011;78;21767;-88
2021/01/01 07:43:07;;;;;;;31.02;15.25;;;;;;;0.03;83.53;98159.69;2286957;77;21327;-88
2021/01/01 07:46:09;;;;;;;32.30;17.02;;;;;;;0.06;83.41;98159.42;2287326;78;21295;-87
2021/01/01 07:49:11;;;;;;;34.18;15.45;;;;;;;0.03;83.31;98157.11;2287329;78;21125;-89
2021/01/01 07:52:12;;;;;;;33.73;14.40;;;;;;;0.04;83.36;98160.02;2286925;78;21117;-89
2021/01/01 07:55:14;;;;;;;26.65;13.15;;;;;;;0.06;83.34;98164.57;2286922;78;21098;-89
2021/01/01 07:58:16;;;;;;;30.12;15.48;;;;;;;0.10;83.21;98166.78;2286939;78;21184;-89
2021/01/01 08:01:18;;;;;;;34.15;15.98;;;;;;;0.02;83.02;98166.59;2268244;78;21295;-89
2021/01/01 08:04:19;;;;;;;27.85;13.62;;;;;;;-0.09;83.00;98162.77;2287589;78;21799;-91
2021/01/01 08:07:21;;;;;;;33.28;14.70;;;;;;;-0.10;83.20;98168.39;2288451;78;21133;-92
2021/01/01 08:10:23;;;;;;;26.07;12.60;;;;;;;-0.11;83.16;98166.77;2287866;78;21137;-90
2021/01/01 08:13:24;;;;;;;26.87;13.18;;;;;;;-0.18;82.94;98169.96;2289788;77;21263;-90
2021/01/01 08:16:26;;;;;;;25.75;12.13;;;;;;;-0.23;82.96;98163.91;2288646;78;21637;-90
2021/01/01 08:19:27;;;;;;;21.73;10.98;;;;;;;-0.26;82.99;98171.89;2287251;78;21649;-92
2021/01/01 08:22:33;;;;;;;26.42;12.60;;;;;;;-0.24;83.23;98183.34;2287199;78;21150;-89
2021/01/01 08:25:34;;;;;;;30.75;15.60;;;;;;;-0.23;83.32;98183.22;2286881;78;21124;-89
2021/01/01 08:28:36;;;;;;;35.17;15.65;;;;;;;-0.20;83.43;98180.86;2286924;78;21172;-88
2021/01/01 08:31:37;;;;;;;27.50;13.68;;;;;;;-0.17;83.27;98181.91;2286946;78;21148;-88
2021/01/01 08:34:39;;;;;;;34.83;15.13;;;;;;;-0.14;83.43;98180.37;2286749;78;21184;-88
2021/01/01 08:37:41;;;;;;;29.18;13.80;;;;;;;-0.05;83.57;98182.19;2286855;78;21145;-90
2021/01/01 08:40:42;;;;;;;35.05;15.70;;;;;;;0.02;83.49;98187.19;2287225;78;21711;-89
2021/01/01 08:43:44;;;;;;;28.23;13.62;;;;;;;0.06;83.24;98181.30;2287109;78;21181;-90
2021/01/01 08:46:45;;;;;;;27.70;14.33;;;;;;;0.11;82.97;98181.75;2287105;78;21165;-89
2021/01/01 08:49:49;;;;;;;23.83;11.22;;;;;;;0.13;83.02;98181.97;2286822;78;21494;-88
2021/01/01 08:52:50;;;;;;;23.50;12.63;;;;;;;0.21;82.87;98184.72;2286786;78;21731;-89
2021/01/01 08:55:55;;;;;;;18.70;10.23;;;;;;;0.23;82.45;98194.89;2286622;78;21675;-89
2021/01/01 08:58:56;;;;;;;24.80;13.38;;;;;;;0.22;82.51;98197.13;2286906;77;21101;-89
2021/01/01 09:02:00;;;;;;;24.18;12.45;;;;;;;0.19;82.45;98204.64;2287215;78;21323;-89
2021/01/01 09:05:02;;;;;;;22.42;11.45;;;;;;;0.24;82.52;98197.33;2287022;78;21129;-89
2021/01/01 09:08:04;;;;;;;27.62;13.68;;;;;;;0.24;82.27;98192.66;2287000;78;21153;-89
2021/01/01 09:11:06;;;;;;;21.80;12.03;;;;;;;0.21;82.44;98192.92;2287398;78;21294;-89
2021/01/01 09:14:07;;;;;;;23.80;12.35;;;;;;;0.21;82.58;98191.16;2287014;78;21444;-88
2021/01/01 09:17:11;;;;;;;24.02;12.58;;;;;;;0.23;82.48;98196.18;2287017;78;21275;-89
2021/01/01 09:20:14;;;;;;;26.85;13.93;;;;;;;0.24;82.74;98201.67;2287568;78;21283;-92
2021/01/01 09:23:16;;;;;;;25.43;12.23;;;;;;;0.31;82.78;98200.70;2287041;77;21169;-90
2021/01/01 09:26:17;;;;;;;22.77;12.60;;;;;;;0.40;82.46;98194.31;2286910;78;21312;-89
2021/01/01 09:29:19;;;;;;;17.98;10.50;;;;;;;0.50;82.57;98195.17;2287226;78;21271;-90
2021/01/01 09:32:20;;;;;;;25.77;12.45;;;;;;;0.53;82.07;98201.81;2286967;78;21129;-90
2021/01/01 09:35:22;;;;;;;24.92;11.88;;;;;;;0.54;82.07;98201.69;2287446;78;21315;-91
2021/01/01 09:38:23;;;;;;;20.60;12.28;;;;;;;0.62;82.14;98204.09;2287722;78;21743;-91
2021/01/01 09:41:25;;;;;;;19.65;11.95;;;;;;;0.70;82.09;98199.92;2287183;78;21263;-89
2021/01/01 09:44:26;;;;;;;23.30;12.50;;;;;;;0.80;81.72;98202.54;2289618;76;21280;-92
2021/01/01 09:47:28;;;;;;;23.57;13.58;;;;;;;0.85;81.67;98193.48;2292127;78;21286;-91
2021/01/01 09:50:30;;;;;;;23.62;11.57;;;;;;;0.92;81.76;98199.41;2292613;77;21314;-90
2021/01/01 09:53:31;;;;;;;24.87;12.20;;;;;;;1.05;81.83;98204.66;2292780;77;21314;-89
2021/01/01 09:56:33;;;;;;;23.62;13.85;;;;;;;1.02;81.21;98202.35;2291766;77;21683;-88
2021/01/01 09:59:34;;;;;;;20.55;11.48;;;;;;;0.98;81.30;98198.87;2295410;76;21121;-96
2021/01/01 10:02:37;;;;;;;21.80;11.95;;;;;;;0.92;80.62;98197.65;2293658;77;21138;-95
2021/01/01 10:05:38;;;;;;;17.10;10.28;;;;;;;0.80;81.06;98194.80;2292846;77;21267;-94
2021/01/01 10:08:40;;;;;;;21.77;11.30;;;;;;;0.71;81.23;98193.83;2293365;77;21295;-92
2021/01/01 10:11:41;;;;;;;15.48;8.45;;;;;;;0.71;81.14;98194.30;2292303;77;21433;-94
2021/01/01 10:14:43;;;;;;;19.17;10.93;;;;;;;0.61;80.58;98195.55;2292396;78;21248;-91
2021/01/01 10:17:46;;;;;;;17.95;10.03;;;;;;;0.59;81.32;98199.20;2292233;77;21157;-93
2021/01/01 10:21:08;;;;;;;20.43;11.95;;;;;;;0.54;81.30;98204.26;2290642;78;21129;-92
2021/01/01 10:24:15;;;;;;;21.25;12.70;;;;;;;0.59;81.69;98200.50;2291354;77;21456;-91
2021/01/01 10:27:22;;;;;;;23.10;11.97;;;;;;;0.58;81.52;98202.27;2291141;78;21110;-94
2021/01/01 10:30:25;;;;;;;19.23;10.63;;;;;;;0.61;81.32;98198.60;2291422;77;21102;-93
2021/01/01 10:33:26;;;;;;;17.02;9.28;;;;;;;0.59;81.34;98199.20;2265642;78;21279;-92
2021/01/01 10:36:28;;;;;;;21.35;12.70;;;;;;;0.51;81.06;98193.41;2291945;78;21256;-93
2021/01/01 10:39:33;;;;;;;18.85;10.63;;;;;;;0.47;81.42;98188.19;2292240;77;21825;-94
2021/01/01 10:42:36;;;;;;;23.75;12.82;;;;;;;0.54;81.63;98184.94;2291479;77;21121;-93
2021/01/01 10:45:38;;;;;;;20.88;10.68;;;;;;;0.56;81.82;98183.55;2288412;77;21296;-93
2021/01/01 10:48:39;;;;;;;25.23;13.80;;;;;;;0.61;81.78;98192.16;2288348;78;21783;-94
2021/01/01 10:51:41;;;;;;;22.62;12.35;;;;;;;0.66;81.90;98184.39;2288012;77;21280;-93
2021/01/01 10:54:42;;;;;;;18.32;11.65;;;;;;;0.72;81.64;98193.35;2287779;78;21735;-95
2021/01/01 10:57:44;;;;;;;16.27;10.82;;;;;;;0.82;81.73;98194.20;2287594;78;21291;-94
2021/01/01 11:00:48;;;;;;;17.82;9.98;;;;;;;0.90;81.75;98195.65;2287484;78;21307;-92
2021/01/01 11:03:49;;;;;;;16.40;9.35;;;;;;;0.92;81.47;98190.39;2287585;78;21711;-93
2021/01/01 11:06:51;;;;;;;14.25;9.13;;;;;;;0.97;81.20;98192.89;2287603;78;21145;-92
2021/01/01 11:09:57;;;;;;;18.15;9.90;;;;;;;0.95;81.01;98190.12;2287236;78;21132;-92
2021/01/01 11:13:05;;;;;;;23.62;12.35;;;;;;;0.95;81.05;98190.93;2287052;78;21161;-92
2021/01/01 12:22:45;;;;;;;27.55;15.08;;;;;;;0.71;81.97;98185.28;2235710;80;21286;-92
2021/01/01 12:25:44;;;;;;;32.33;17.37;;;;;;;0.72;82.00;98187.72;2235441;78;21254;-91
2021/01/01 12:28:46;;;;;;;33.60;16.75;;;;;;;0.75;82.33;98196.50;2236087;80;21326;-93
2021/01/01 12:31:48;;;;;;;30.82;15.88;;;;;;;0.78;82.46;98196.70;2235737;80;21140;-92
2021/01/01 12:34:49;;;;;;;30.97;15.60;;;;;;;0.81;82.23;98202.41;2235442;80;21926;-91
2021/01/01 12:37:51;;;;;;;30.48;17.32;;;;;;;0.85;82.09;98197.34;2235595;80;21127;-91
2021/01/01 12:40:52;;;;;;;29.95;16.80;;;;;;;0.82;81.91;98196.33;2235496;80;21120;-90
2021/01/01 12:43:54;;;;;;;25.60;12.63;;;;;;;0.84;81.91;98199.59;2248087;77;21277;-93
2021/01/01 12:46:57;;;;;;;28.45;13.85;;;;;;;0.79;81.75;98205.59;2309297;77;21270;-93
2021/01/01 12:49:58;;;;;;;26.33;14.35;;;;;;;0.77;81.89;98201.52;2308837;77;21096;-92
2021/01/01 12:53:00;;;;;;;26.80;12.63;;;;;;;0.77;81.90;98203.63;2308914;77;21287;-91
2021/01/01 12:56:02;;;;;;;28.92;15.25;;;;;;;0.72;81.79;98208.34;2309018;77;21150;-92
2021/01/01 12:59:04;;;;;;;22.85;14.15;;;;;;;0.68;81.91;98213.42;2309421;77;21249;-88
2021/01/01 13:02:08;;;;;;;25.52;14.35;;;;;;;0.69;81.94;98215.52;2311682;77;21305;-89
2021/01/01 13:05:10;;;;;;;25.45;13.88;;;;;;;0.61;81.83;98212.77;2311731;77;21139;-90
2021/01/01 13:08:12;;;;;;;28.50;14.03;;;;;;;0.55;82.15;98209.78;2282879;77;21697;-93
2021/01/01 13:11:13;;;;;;;27.73;14.05;;;;;;;0.47;82.13;98216.52;2310847;77;21270;-91
2021/01/01 13:14:19;;;;;;;28.77;14.75;;;;;;;0.41;81.95;98209.30;2311130;77;21285;-88
2021/01/01 13:17:21;;;;;;;24.85;12.90;;;;;;;0.37;82.16;98215.19;2310824;77;21266;-93
2021/01/01 13:20:44;;;;;;;28.70;14.55;;;;;;;0.31;82.17;98209.72;2309540;77;21163;-91
2021/01/01 13:23:55;;;;;;;31.75;15.72;;;;;;;0.24;82.41;98205.06;2246533;77;21202;-93
2021/01/01 13:27:00;;;;;;;27.35;15.13;;;;;;;0.20;82.64;98209.32;2308873;77;21278;-93
2021/01/01 13:30:04;;;;;;;30.02;16.23;;;;;;;0.19;82.69;98208.98;2309186;77;21146;-94
2021/01/01 13:33:06;;;;;;;33.00;15.93;;;;;;;0.16;82.84;98208.73;2309567;77;21242;-96
2021/01/01 13:36:08;;;;;;;39.30;18.40;;;;;;;0.11;82.66;98219.09;2309491;77;21278;-95
2021/01/01 13:39:13;;;;;;;32.35;16.97;;;;;;;0.07;83.04;98218.97;2310389;77;21119;-92
2021/01/01 13:42:17;;;;;;;30.65;15.28;;;;;;;0.05;82.85;98208.81;2310103;77;21159;-93
2021/01/01 13:45:20;;;;;;;22.98;12.20;;;;;;;0.04;82.96;98207.66;2305905;76;21132;-91
2021/01/01 13:48:22;;;;;;;31.97;18.42;;;;;;;-0.01;83.07;98208.83;2310912;77;21298;-93
2021/01/01 13:51:24;;;;;;;36.90;19.95;;;;;;;-0.12;83.05;98215.80;2310189;77;21257;-94
2021/01/01 13:54:26;;;;;;;40.83;19.65;;;;;;;-0.20;83.33;98224.59;2310403;77;21163;-92
2021/01/01 13:57:27;;;;;;;31.05;16.70;;;;;;;-0.24;84.36;98217.61;2311144;77;21138;-93
2021/01/01 14:00:29;;;;;;;49.27;23.65;;;;;;;-0.28;83.49;98221.35;2310732;77;21710;-94
2021/01/01 14:03:35;;;;;;;41.95;20.30;;;;;;;-0.36;83.42;98218.61;2311166;77;21153;-92
2021/01/01 14:06:36;;;;;;;41.42;20.40;;;;;;;-0.36;83.80;98214.75;2309036;77;21736;-89
2021/01/01 14:09:38;;;;;;;38.85;20.10;;;;;;;-0.39;83.81;98217.08;2310153;77;21254;-91
2021/01/01 14:12:43;;;;;;;40.78;20.43;;;;;;;-0.41;83.92;98208.67;2310643;77;21286;-91
2021/01/01 14:15:46;;;;;;;34.67;19.60;;;;;;;-0.43;83.89;98220.03;2312752;77;21278;-94
2021/01/01 14:18:48;;;;;;;49.18;24.02;;;;;;;-0.43;84.01;98223.89;2312274;77;21258;-95
2021/01/01 14:21:50;;;;;;;38.58;19.45;;;;;;;-0.49;83.78;98225.65;2312213;77;21258;-93
2021/01/01 14:24:52;;;;;;;35.52;18.55;;;;;;;-0.51;83.89;98229.63;2309897;77;21290;-94
2021/01/01 14:27:55;;;;;;;46.00;22.35;;;;;;;-0.53;83.75;98229.41;2308979;77;21547;-95
2021/01/01 14:30:57;;;;;;;45.00;21.33;;;;;;;-0.58;83.96;98224.15;2309324;77;21294;-93
2021/01/01 14:33:58;;;;;;;48.70;23.30;;;;;;;-0.62;83.98;98222.77;2309024;77;21281;-94
2021/01/01 14:37:00;;;;;;;43.78;21.50;;;;;;;-0.59;84.00;98231.52;2309166;77;21305;-95
2021/01/01 14:40:02;;;;;;;39.33;19.20;;;;;;;-0.61;83.88;98236.45;2308955;77;21107;-93
2021/01/01 14:43:05;;;;;;;49.75;23.77;;;;;;;-0.66;83.94;98247.55;2309381;77;21285;-93
2021/01/01 14:46:07;;;;;;;57.80;26.68;;;;;;;-0.72;84.17;98240.34;2305991;77;21138;-95
2021/01/01 14:49:09;;;;;;;39.45;19.15;;;;;;;-0.70;84.32;98241.84;2305772;77;21116;-93
2021/01/01 14:52:14;;;;;;;86.15;41.60;;;;;;;-0.73;84.47;98240.80;2305621;77;21524;-94
2021/01/01 14:55:17;;;;;;;61.95;28.20;;;;;;;-0.75;84.47;98242.66;2305321;77;21170;-94
2021/01/01 14:58:20;;;;;;;51.05;24.98;;;;;;;-0.75;84.57;98240.55;2305638;77;21711;-94
2021/01/01 15:01:24;;;;;;;43.23;20.43;;;;;;;-0.75;84.47;98254.22;2305693;77;21577;-96
2021/01/01 15:04:27;;;;;;;44.42;21.85;;;;;;;-0.77;84.46;98254.00;2306879;77;21147;-95
2021/01/01 15:07:29;;;;;;;57.85;25.30;;;;;;;-0.83;84.39;98242.43;2306953;77;21262;-96
2021/01/01 15:10:31;;;;;;;49.05;24.77;;;;;;;-0.86;84.67;98249.11;2306959;77;21245;-94
2021/01/01 15:13:32;;;;;;;46.60;22.50;;;;;;;-0.85;84.69;98253.30;2305513;77;21750;-93
2021/01/01 15:16:34;;;;;;;70.12;30.30;;;;;;;-0.87;84.74;98258.57;2305066;77;21296;-94
2021/01/01 15:19:37;;;;;;;56.83;24.70;;;;;;;-0.91;84.76;98252.05;2307320;77;21273;-94
2021/01/01 15:22:39;;;;;;;60.98;26.60;;;;;;;-0.89;85.01;98252.73;2307134;77;21230;-95
2021/01/01 15:25:40;;;;;;;62.78;28.23;;;;;;;-0.89;85.06;98258.34;2307417;77;21262;-96